createdAt,value
2019-05-01T00:01:47.923Z,26.97
2019-05-01T00:04:28.471Z,26.62
2019-05-01T00:07:08.523Z,25.40
2019-05-01T00:09:38.092Z,28.12
2019-05-01T00:12:07.947Z,27.13
2019-05-01T00:14:37.372Z,26.95
2019-05-01T00:17:07.051Z,28.65
2019-05-01T00:19:36.411Z,27.93
2019-05-01T00:22:06.004Z,27.80
2019-05-01T00:24:35.360Z,27.48
2019-05-01T00:27:04.813Z,27.73
2019-05-01T00:29:34.255Z,27.37
2019-05-01T00:32:03.671Z,28.57
2019-05-01T00:34:33.021Z,27.17
2019-05-01T00:37:02.394Z,29.45
2019-05-01T00:39:31.808Z,28.02
2019-05-01T00:42:01.192Z,28.75
2019-05-01T00:44:30.545Z,27.85
2019-05-01T00:46:59.913Z,26.82
2019-05-01T00:49:29.343Z,27.35
2019-05-01T00:51:58.708Z,26.48
2019-05-01T00:54:29.038Z,23.95
2019-05-01T00:57:00.044Z,27.30
2019-05-01T00:59:43.040Z,26.73
2019-05-01T01:02:14.057Z,25.10
2019-05-01T01:04:43.536Z,28.42
2019-05-01T01:07:12.882Z,26.42
2019-05-01T01:09:42.255Z,25.45
2019-05-01T01:12:11.637Z,25.77
2019-05-01T01:14:41.005Z,26.20
2019-05-01T01:17:10.374Z,25.00
2019-05-01T01:19:39.737Z,25.37
2019-05-01T01:22:09.158Z,24.87
2019-05-01T01:24:39.709Z,25.80
2019-05-01T01:27:10.337Z,26.40
2019-05-01T01:29:39.702Z,24.47
2019-05-01T01:32:09.039Z,24.32
2019-05-01T01:34:38.411Z,25.62
2019-05-01T01:37:07.834Z,26.33
2019-05-01T01:39:37.358Z,26.42
2019-05-01T01:42:08.215Z,25.60
2019-05-01T01:44:54.643Z,25.25
2019-05-01T01:47:24.465Z,26.02
2019-05-01T01:49:54.947Z,27.00
2019-05-01T01:52:25.564Z,25.87
2019-05-01T01:54:55.712Z,26.17
2019-05-01T01:57:25.155Z,24.87
2019-05-01T01:59:54.829Z,25.25
2019-05-01T02:02:37.647Z,24.75
2019-05-01T02:05:11.553Z,25.15
2019-05-01T02:07:41.527Z,25.12
2019-05-01T02:10:12.557Z,25.90
2019-05-01T02:12:42.478Z,25.52
2019-05-01T02:15:12.238Z,25.95
2019-05-01T02:17:41.604Z,26.45
2019-05-01T02:20:11.699Z,26.17
2019-05-01T02:22:41.279Z,26.12
2019-05-01T02:25:12.162Z,25.68
2019-05-01T02:27:46.150Z,25.30
2019-05-01T02:30:17.221Z,25.63
2019-05-01T02:32:47.494Z,26.03
2019-05-01T02:35:17.997Z,26.60
2019-05-01T02:37:48.784Z,26.93
2019-05-01T02:40:51.370Z,25.37
2019-05-01T02:43:22.692Z,23.73
2019-05-01T02:45:55.311Z,28.20
2019-05-01T02:48:27.940Z,26.33
2019-05-01T02:51:00.387Z,26.00
2019-05-01T02:53:32.644Z,26.75
2019-05-01T02:56:14.142Z,26.45
2019-05-01T02:58:45.106Z,27.07
2019-05-01T03:01:14.851Z,27.15
2019-05-01T03:03:44.401Z,27.82
2019-05-01T03:06:14.152Z,27.32
2019-05-01T03:08:44.317Z,28.85
2019-05-01T03:11:13.728Z,25.85
2019-05-01T03:13:45.544Z,28.67
2019-05-01T03:16:15.653Z,30.23
2019-05-01T03:18:50.344Z,28.90
2019-05-01T03:21:24.004Z,29.07
2019-05-01T03:24:11.141Z,29.23
2019-05-01T03:26:40.810Z,28.83
2019-05-01T03:29:10.245Z,28.90
2019-05-01T03:31:40.116Z,30.30
2019-05-01T03:34:09.560Z,29.72
2019-05-01T03:36:39.363Z,30.20
2019-05-01T03:39:08.779Z,29.67
2019-05-01T03:41:38.667Z,31.00
2019-05-01T03:44:08.491Z,31.48
2019-05-01T03:46:37.936Z,30.45
2019-05-01T03:49:07.331Z,32.53
2019-05-01T03:51:37.342Z,33.35
2019-05-01T03:54:07.127Z,31.33
2019-05-01T03:56:36.692Z,31.57
2019-05-01T03:59:06.708Z,33.88
2019-05-01T04:01:37.906Z,31.75
2019-05-01T04:06:38.828Z,32.93
2019-05-01T04:09:08.607Z,32.20
2019-05-01T04:11:38.188Z,32.00
2019-05-01T04:14:07.688Z,34.35
2019-05-01T04:16:37.763Z,32.70
2019-05-01T04:19:07.323Z,34.85
2019-05-01T04:21:41.588Z,34.45
2019-05-01T04:24:11.032Z,35.98
2019-05-01T04:26:41.128Z,36.03
2019-05-01T04:29:15.168Z,36.23
2019-05-01T04:31:46.529Z,33.58
2019-05-01T04:34:26.583Z,36.30
2019-05-01T04:37:01.005Z,35.38
2019-05-01T04:39:30.488Z,35.95
2019-05-01T04:42:00.062Z,36.60
2019-05-01T04:44:29.627Z,36.13
2019-05-01T04:46:59.384Z,35.40
2019-05-01T04:49:29.716Z,35.58
2019-05-01T04:51:59.291Z,38.25
2019-05-01T04:54:28.799Z,36.77
2019-05-01T04:56:58.303Z,36.58
2019-05-01T04:59:27.723Z,38.05
2019-05-01T05:02:02.026Z,37.10
2019-05-01T05:04:31.802Z,36.45
2019-05-01T05:07:01.402Z,35.75
2019-05-01T05:09:45.374Z,38.58
2019-05-01T05:12:20.131Z,37.20
2019-05-01T05:14:56.807Z,37.63
2019-05-01T05:17:26.996Z,38.28
2019-05-01T05:19:56.908Z,37.45
2019-05-01T05:22:26.521Z,37.85
2019-05-01T05:24:55.953Z,37.90
2019-05-01T05:27:25.338Z,37.67
2019-05-01T05:29:56.979Z,37.15
2019-05-01T05:32:28.724Z,39.90
2019-05-01T05:34:59.717Z,37.65
2019-05-01T05:37:49.573Z,38.17
2019-05-01T05:40:19.471Z,37.05
2019-05-01T05:42:49.236Z,36.28
2019-05-01T05:45:19.557Z,38.38
2019-05-01T05:47:49.603Z,35.90
2019-05-01T05:50:20.584Z,37.08
2019-05-01T05:52:53.002Z,36.50
2019-05-01T05:55:32.780Z,39.47
2019-05-01T05:58:05.438Z,36.60
2019-05-01T06:00:54.455Z,36.58
2019-05-01T06:03:44.567Z,36.15
2019-05-01T06:06:33.291Z,38.70
2019-05-01T06:09:08.917Z,38.78
2019-05-01T06:11:50.803Z,37.93
2019-05-01T06:14:41.583Z,39.60
2019-05-01T06:17:12.655Z,39.55
2019-05-01T06:19:49.998Z,40.63
2019-05-01T06:22:40.844Z,43.75
2019-05-01T06:25:22.461Z,44.98
2019-05-01T06:27:53.442Z,45.80
2019-05-01T06:30:22.951Z,46.68
2019-05-01T06:32:52.380Z,45.03
2019-05-01T06:35:22.062Z,42.48
2019-05-01T06:38:02.306Z,43.63
2019-05-01T06:40:40.466Z,44.20
2019-05-01T06:43:25.225Z,44.78
2019-05-01T06:46:11.247Z,45.03
2019-05-01T06:49:07.147Z,41.85
2019-05-01T06:51:41.369Z,43.17
2019-05-01T06:54:16.356Z,45.20
2019-05-01T06:56:44.884Z,45.58
2019-05-01T06:59:16.299Z,44.50
2019-05-01T07:04:15.848Z,43.25
2019-05-01T07:06:45.369Z,42.55
2019-05-01T07:09:27.392Z,42.05
2019-05-01T07:11:47.719Z,41.48
2019-05-01T07:14:17.598Z,43.90
2019-05-01T07:16:47.227Z,43.58
2019-05-01T07:19:18.057Z,39.48
2019-05-01T07:21:49.403Z,37.93
2019-05-01T07:24:19.111Z,34.55
2019-05-01T07:26:49.229Z,33.70
2019-05-01T07:29:20.426Z,34.38
2019-05-01T07:31:49.973Z,33.30
2019-05-01T07:34:21.617Z,31.40
2019-05-01T07:39:20.748Z,28.23
2019-05-01T07:41:50.340Z,29.82
2019-05-01T07:44:23.917Z,32.20
2019-05-01T07:47:07.142Z,32.23
2019-05-01T07:49:52.640Z,32.78
2019-05-01T07:52:23.914Z,33.05
2019-05-01T07:54:55.287Z,36.00
2019-05-01T07:57:26.959Z,36.10
2019-05-01T07:59:58.394Z,36.40
2019-05-01T08:02:31.132Z,39.60
2019-05-01T08:04:58.839Z,43.33
2019-05-01T08:07:32.424Z,40.58
2019-05-01T08:09:59.252Z,40.60
2019-05-01T08:12:28.611Z,41.77
2019-05-01T08:14:58.045Z,45.98
2019-05-01T08:17:29.108Z,43.75
2019-05-01T08:20:09.834Z,43.03
2019-05-01T08:22:38.905Z,41.50
2019-05-01T08:25:08.570Z,40.90
2019-05-01T08:27:42.616Z,42.40
2019-05-01T08:30:30.548Z,43.15
2019-05-01T08:33:14.666Z,41.42
2019-05-01T08:35:43.948Z,44.48
2019-05-01T08:38:13.323Z,43.17
2019-05-01T08:40:42.763Z,45.17
2019-05-01T08:43:13.679Z,45.63
2019-05-01T08:46:01.497Z,48.93
2019-05-01T08:48:37.573Z,49.95
2019-05-01T08:51:06.427Z,50.78
2019-05-01T08:53:35.859Z,47.48
2019-05-01T08:56:05.609Z,47.35
2019-05-01T08:58:34.979Z,49.18
2019-05-01T09:01:10.708Z,48.25
2019-05-01T09:03:37.855Z,49.48
2019-05-01T09:06:07.299Z,49.70
2019-05-01T09:08:36.943Z,47.10
2019-05-01T09:11:06.349Z,50.33
2019-05-01T09:13:35.726Z,53.40
2019-05-01T09:16:06.077Z,50.05
2019-05-01T09:18:35.413Z,51.10
2019-05-01T09:21:04.954Z,49.88
2019-05-01T09:23:34.776Z,50.38
2019-05-01T09:26:15.959Z,49.45
2019-05-01T09:28:45.369Z,49.25
2019-05-01T09:43:42.126Z,46.70
2019-05-01T09:46:11.580Z,48.08
2019-05-01T09:48:41.148Z,46.42
2019-05-01T09:51:28.850Z,44.55
2019-05-01T09:54:15.376Z,45.70
2019-05-01T09:56:44.868Z,45.58
2019-05-01T09:59:18.932Z,46.70
2019-05-01T10:01:49.830Z,47.93
2019-05-01T10:04:19.189Z,45.28
2019-05-01T10:06:52.421Z,46.37
2019-05-01T10:09:19.685Z,44.95
2019-05-01T10:11:49.192Z,47.83
2019-05-01T10:14:18.712Z,45.17
2019-05-01T10:16:48.077Z,43.85
2019-05-01T10:19:17.434Z,45.40
2019-05-01T10:21:46.819Z,46.18
2019-05-01T10:24:16.176Z,46.02
2019-05-01T10:26:47.218Z,47.35
2019-05-01T10:29:21.512Z,47.30
2019-05-01T10:31:56.537Z,49.53
2019-05-01T10:34:45.679Z,48.35
2019-05-01T10:37:15.072Z,50.33
2019-05-01T10:39:44.604Z,51.73
2019-05-01T10:42:14.055Z,52.20
2019-05-01T10:44:43.419Z,53.38
2019-05-01T10:47:15.782Z,55.33
2019-05-01T10:49:45.172Z,53.90
2019-05-01T10:52:14.717Z,54.67
2019-05-01T10:54:46.508Z,56.15
2019-05-01T10:59:43.848Z,57.90
2019-05-01T11:02:16.910Z,55.63
2019-05-01T11:04:46.055Z,58.02
2019-05-01T11:07:15.496Z,59.05
2019-05-01T11:09:46.407Z,58.70
2019-05-01T11:12:15.845Z,57.40
2019-05-01T11:14:45.279Z,62.17
2019-05-01T11:17:14.679Z,58.63
2019-05-01T11:19:44.120Z,60.00
2019-05-01T11:22:13.481Z,60.92
2019-05-01T11:24:42.838Z,61.90
2019-05-01T11:27:12.344Z,62.85
2019-05-01T11:29:41.701Z,62.73
2019-05-01T11:32:18.510Z,64.82
2019-05-01T11:34:49.595Z,68.00
2019-05-01T11:37:32.604Z,67.15
2019-05-01T11:40:06.157Z,69.37
2019-05-01T11:42:35.646Z,69.62
2019-05-01T11:45:10.832Z,68.97
2019-05-01T11:47:40.209Z,71.10
2019-05-01T11:50:09.903Z,71.77
2019-05-01T11:52:39.284Z,78.52
2019-05-01T11:55:08.948Z,77.42
2019-05-01T11:57:38.539Z,78.45
2019-05-01T12:00:11.563Z,77.62
2019-05-01T12:02:41.555Z,79.67
2019-05-01T12:05:11.018Z,80.57
2019-05-01T12:07:42.520Z,80.40
2019-05-01T12:10:14.375Z,80.80
2019-05-01T12:12:43.225Z,78.67
2019-05-01T12:15:13.308Z,80.23
2019-05-01T12:17:44.396Z,78.53
2019-05-01T12:20:14.448Z,78.40
2019-05-01T12:22:43.838Z,79.27
2019-05-01T12:25:14.207Z,81.42
2019-05-01T12:27:43.608Z,79.93
2019-05-01T12:30:15.009Z,79.67
2019-05-01T12:32:44.406Z,82.33
2019-05-01T12:35:13.910Z,81.67
2019-05-01T12:37:44.950Z,79.35
2019-05-01T12:40:16.229Z,81.80
2019-05-01T12:42:46.658Z,81.15
2019-05-01T12:45:22.809Z,82.80
2019-05-01T12:47:59.744Z,82.12
2019-05-01T12:50:29.175Z,83.22
2019-05-01T12:53:00.282Z,80.75
2019-05-01T12:55:31.483Z,78.55
2019-05-01T13:00:41.179Z,75.80
2019-05-01T13:03:11.246Z,75.43
2019-05-01T13:05:40.640Z,74.97
2019-05-01T13:08:10.030Z,76.87
2019-05-01T13:10:39.482Z,77.47
2019-05-01T13:13:11.102Z,75.35
2019-05-01T13:15:40.044Z,77.67
2019-05-01T13:18:09.487Z,72.62
2019-05-01T13:20:38.852Z,73.20
2019-05-01T13:23:08.383Z,77.70
2019-05-01T13:25:37.816Z,70.32
2019-05-01T13:28:11.701Z,76.53
2019-05-01T13:30:54.681Z,70.55
2019-05-01T13:33:24.186Z,72.85
2019-05-01T13:35:53.632Z,75.62
2019-05-01T13:38:23.024Z,78.20
2019-05-01T13:40:52.470Z,71.75
2019-05-01T13:43:21.834Z,71.80
2019-05-01T13:45:51.340Z,71.82
2019-05-01T13:48:20.728Z,68.80
2019-05-01T13:50:50.080Z,74.70
2019-05-01T13:53:20.222Z,72.20
2019-05-01T13:55:49.710Z,71.47
2019-05-01T13:58:19.132Z,70.55
2019-05-01T14:00:48.509Z,70.80
2019-05-01T14:03:18.013Z,67.67
2019-05-01T14:05:47.387Z,69.42
2019-05-01T14:08:16.790Z,69.37
2019-05-01T14:10:46.145Z,63.83
2019-05-01T14:13:15.665Z,67.03
2019-05-01T14:15:46.750Z,69.25
2019-05-01T14:18:16.402Z,66.60
2019-05-01T14:21:01.608Z,64.53
2019-05-01T14:23:35.494Z,66.87
2019-05-01T14:26:09.687Z,67.72
2019-05-01T14:28:39.044Z,63.78
2019-05-01T14:31:08.582Z,65.20
2019-05-01T14:33:39.511Z,64.80
2019-05-01T14:36:09.026Z,66.10
2019-05-01T14:38:41.004Z,63.98
2019-05-01T14:41:10.408Z,66.50
2019-05-01T14:43:40.088Z,68.00
2019-05-01T14:46:09.513Z,63.40
2019-05-01T14:48:38.896Z,61.63
2019-05-01T14:51:08.279Z,62.62
2019-05-01T14:53:38.228Z,61.23
2019-05-01T14:56:07.666Z,63.13
2019-05-01T14:58:37.072Z,63.38
2019-05-01T15:01:06.503Z,59.73
2019-05-01T15:03:35.951Z,62.67
2019-05-01T15:06:07.935Z,64.05
2019-05-01T15:08:39.490Z,62.93
2019-05-01T15:11:10.001Z,62.43
2019-05-01T15:13:49.878Z,61.70
2019-05-01T15:19:00.360Z,61.07
2019-05-01T15:21:29.795Z,62.30
2019-05-01T15:23:59.154Z,62.50
2019-05-01T15:26:28.638Z,56.28
2019-05-01T15:28:57.994Z,59.13
2019-05-01T15:31:27.426Z,60.03
2019-05-01T15:33:56.973Z,58.58
2019-05-01T15:36:26.361Z,55.03
2019-05-01T15:38:56.140Z,54.67
2019-05-01T15:41:32.874Z,56.23
2019-05-01T15:44:03.874Z,53.70
2019-05-01T15:46:34.942Z,54.40
2019-05-01T15:49:08.961Z,53.35
2019-05-01T15:51:38.338Z,54.48
2019-05-01T15:54:08.787Z,48.63
2019-05-01T15:56:38.250Z,48.37
2019-05-01T15:59:07.621Z,51.92
2019-05-01T16:01:39.984Z,53.00
2019-05-01T16:04:09.370Z,51.15
2019-05-01T16:06:38.867Z,50.28
2019-05-01T16:09:08.787Z,50.98
2019-05-01T16:11:56.022Z,51.90
2019-05-01T16:14:28.323Z,53.42
2019-05-01T16:16:59.383Z,53.55
2019-05-01T16:19:28.850Z,54.40
2019-05-01T16:21:58.272Z,46.42
2019-05-01T16:24:28.700Z,47.93
2019-05-01T16:26:58.074Z,47.98
2019-05-01T16:29:27.510Z,48.35
2019-05-01T16:31:56.946Z,48.75
2019-05-01T16:34:26.657Z,47.13
2019-05-01T16:36:56.101Z,48.48
2019-05-01T16:39:39.149Z,48.33
2019-05-01T16:42:10.216Z,46.48
2019-05-01T16:44:41.303Z,47.33
2019-05-01T16:47:10.819Z,44.57
2019-05-01T16:49:40.228Z,45.20
2019-05-01T16:52:09.805Z,43.17
2019-05-01T16:54:39.229Z,43.52
2019-05-01T16:57:10.309Z,45.25
2019-05-01T16:59:39.672Z,43.97
2019-05-01T17:02:17.921Z,46.90
2019-05-01T17:07:50.613Z,50.48
2019-05-01T17:10:24.639Z,49.70
2019-05-01T17:12:55.801Z,50.08
2019-05-01T17:15:35.876Z,50.70
2019-05-01T17:18:06.111Z,44.50
2019-05-01T17:20:35.561Z,45.03
2019-05-01T17:23:05.926Z,45.60
2019-05-01T17:25:36.820Z,44.70
2019-05-01T17:28:08.355Z,42.63
2019-05-01T17:30:40.800Z,40.12
2019-05-01T17:33:10.235Z,40.36
2019-05-01T17:35:41.826Z,41.20
2019-05-01T17:38:10.912Z,41.13
2019-05-01T17:40:40.267Z,38.40
2019-05-01T17:43:13.552Z,40.58
2019-05-01T17:45:40.906Z,40.90
2019-05-01T17:48:10.394Z,40.46
2019-05-01T17:50:39.779Z,43.50
2019-05-01T17:53:09.136Z,43.58
2019-05-01T17:55:41.250Z,42.70
2019-05-01T17:58:12.278Z,44.53
2019-05-01T18:00:46.311Z,43.63
2019-05-01T18:03:17.460Z,40.77
2019-05-01T18:06:01.422Z,37.87
2019-05-01T18:08:28.835Z,36.20
2019-05-01T18:10:58.216Z,40.28
2019-05-01T18:13:27.765Z,37.28
2019-05-01T18:15:58.962Z,39.20
2019-05-01T18:18:28.449Z,39.90
2019-05-01T18:21:01.067Z,39.40
2019-05-01T18:23:32.098Z,35.17
2019-05-01T18:26:09.973Z,36.67
2019-05-01T18:28:41.260Z,36.45
2019-05-01T18:31:12.345Z,35.03
2019-05-01T18:33:43.269Z,37.23
2019-05-01T18:36:12.719Z,34.20
2019-05-01T18:38:47.665Z,34.55
2019-05-01T18:41:19.351Z,34.30
2019-05-01T18:43:48.745Z,36.23
2019-05-01T18:46:18.372Z,39.00
2019-05-01T18:48:47.755Z,38.38
2019-05-01T18:51:17.126Z,36.35
2019-05-01T18:53:46.636Z,38.15
2019-05-01T18:56:16.027Z,39.03
2019-05-01T18:58:45.540Z,40.70
2019-05-01T19:01:16.841Z,39.53
2019-05-01T19:06:17.485Z,36.10
2019-05-01T19:08:46.903Z,39.75
2019-05-01T19:11:16.560Z,42.33
2019-05-01T19:13:46.104Z,44.55
2019-05-01T19:16:17.059Z,42.43
2019-05-01T19:18:46.636Z,46.23
2019-05-01T19:21:17.848Z,47.73
2019-05-01T19:23:47.383Z,48.80
2019-05-01T19:26:17.175Z,47.73
2019-05-01T19:28:48.266Z,49.48
2019-05-01T19:31:17.774Z,48.40
2019-05-01T19:33:47.233Z,48.80
2019-05-01T19:36:16.684Z,51.18
2019-05-01T19:38:48.039Z,48.43
2019-05-01T19:41:17.701Z,50.30
2019-05-01T19:43:47.443Z,50.55
2019-05-01T19:46:19.870Z,50.00
2019-05-01T19:48:50.710Z,51.40
2019-05-01T19:51:24.080Z,52.80
2019-05-01T19:53:53.402Z,52.00
2019-05-01T19:56:24.399Z,53.52
2019-05-01T19:58:53.936Z,53.83
2019-05-01T20:01:28.932Z,54.70
2019-05-01T20:03:58.582Z,53.30
2019-05-01T20:06:28.262Z,54.75
2019-05-01T20:08:57.822Z,54.15
2019-05-01T20:11:29.369Z,55.50
2019-05-01T20:13:58.922Z,57.30
2019-05-01T20:16:30.858Z,57.00
2019-05-01T20:19:02.011Z,57.85
2019-05-01T20:21:31.531Z,56.90
2019-05-01T20:24:04.297Z,59.10
2019-05-01T20:26:34.008Z,61.03
2019-05-01T20:29:03.204Z,57.97
2019-05-01T20:31:50.404Z,61.13
2019-05-01T20:34:20.305Z,60.48
2019-05-01T20:36:49.733Z,60.50
2019-05-01T20:39:19.131Z,61.10
2019-05-01T20:41:49.302Z,60.48
2019-05-01T20:44:23.549Z,60.10
2019-05-01T20:46:53.362Z,61.95
2019-05-01T20:49:22.804Z,63.02
2019-05-01T20:51:52.195Z,62.95
2019-05-01T20:54:21.675Z,65.25
2019-05-01T20:57:04.686Z,62.55
2019-05-01T20:59:35.258Z,63.48
2019-05-01T21:02:08.141Z,63.35
2019-05-01T21:04:41.724Z,63.70
2019-05-01T21:07:15.405Z,62.55
2019-05-01T21:09:47.586Z,64.55
2019-05-01T21:12:18.591Z,62.65
2019-05-01T21:14:49.458Z,64.72
2019-05-01T21:17:19.379Z,62.23
2019-05-01T21:19:48.818Z,63.30
2019-05-01T21:22:18.286Z,60.88
2019-05-01T21:24:47.702Z,63.02
2019-05-01T21:27:17.237Z,61.18
2019-05-01T21:29:46.603Z,56.98
2019-05-01T21:32:18.349Z,55.80
2019-05-01T21:34:47.208Z,54.97
2019-05-01T21:37:16.566Z,55.30
2019-05-01T21:39:46.096Z,57.27
2019-05-01T21:42:16.278Z,54.33
2019-05-01T21:44:47.288Z,52.60
2019-05-01T21:47:16.683Z,55.03
2019-05-01T21:49:47.211Z,54.75
2019-05-01T21:52:17.971Z,55.03
2019-05-01T21:54:50.138Z,59.37
2019-05-01T21:57:19.258Z,59.13
2019-05-01T21:59:50.411Z,59.57
2019-05-01T22:02:20.100Z,59.58
2019-05-01T22:04:49.568Z,59.15
2019-05-01T22:07:19.001Z,58.55
2019-05-01T22:09:50.499Z,59.23
2019-05-01T22:12:19.724Z,60.80
2019-05-01T22:14:50.915Z,57.25
2019-05-01T22:17:22.119Z,57.53
2019-05-01T22:19:51.557Z,59.57
2019-05-01T22:22:28.824Z,57.17
2019-05-01T22:25:03.224Z,54.48
2019-05-01T22:27:37.544Z,52.65
2019-05-01T22:30:24.347Z,50.67
2019-05-01T22:33:04.301Z,48.50
2019-05-01T22:35:35.375Z,46.88
2019-05-01T22:38:06.276Z,45.27
2019-05-01T22:40:37.532Z,44.50
2019-05-01T22:43:07.207Z,43.77
2019-05-01T22:45:36.611Z,42.03
2019-05-01T22:48:05.959Z,43.30
2019-05-01T22:50:35.306Z,42.38
2019-05-01T22:53:07.857Z,41.80
2019-05-01T22:55:36.718Z,41.58
2019-05-01T22:58:06.134Z,43.33
2019-05-01T23:00:46.311Z,42.67
2019-05-01T23:03:20.356Z,43.38
2019-05-01T23:05:49.714Z,44.23
2019-05-01T23:08:19.071Z,42.50
2019-05-01T23:10:48.869Z,41.20
2019-05-01T23:13:18.215Z,43.17
2019-05-01T23:15:51.509Z,43.30
2019-05-01T23:18:19.838Z,44.83
2019-05-01T23:20:49.304Z,42.45
2019-05-01T23:23:18.751Z,43.68
2019-05-01T23:25:48.251Z,41.92
2019-05-01T23:28:17.645Z,43.63
2019-05-01T23:30:47.141Z,43.33
2019-05-01T23:33:16.915Z,41.40
2019-05-01T23:35:46.276Z,40.88
2019-05-01T23:38:15.743Z,43.38
2019-05-01T23:40:46.161Z,43.83
2019-05-01T23:43:16.153Z,44.33
2019-05-01T23:45:45.632Z,46.08
2019-05-01T23:48:15.021Z,47.58
2019-05-01T23:50:45.568Z,47.80
2019-05-01T23:53:15.975Z,48.08
2019-05-01T23:55:45.357Z,48.02
2019-05-01T23:58:15.176Z,49.85
